• Join FlightAware (Why Join?)
  • Login
  • US Flag 
11:37PM EDT


 

Airport Tracker/Info


-or-


 

Live Flight TrackerFlight Track Log ✈ UAL33 ✈ 28-Mar-2014 ✈ RJAA / NRT - KLAX

Flight Track Log - Related Links

Times and Time Zones

All times are in EDT time to prevent confusion due to time zone crossing. See the UAL33 flight status page for this flight to view local times or setup timezone preferences in your user account.

Time Position Orientation Groundspeed Altitude Reporting Facility
EDT Latitude Longitude Course Direction KTS MPH feet Rate Location/Type
06:26AM 35.6646 140.4477 149° Southeast 231 266 3,800  Level FlightAware ADS-B (RJTK)
06:26AM 35.6422 140.4639 149° Southeast 249 287 4,400 1,740 Climbing FlightAware ADS-B (RJTK)
06:27AM 35.6003 140.4937 150° Southeast 284 327 5,600 2,160 Climbing FlightAware ADS-B (RJTK)
06:27AM 35.5772 140.5103 149° Southeast 284 327 6,500 2,760 Climbing FlightAware ADS-B (RJTK)
06:28AM 35.5521 140.5282 149° Southeast 286 329 7,500 2,280 Climbing FlightAware ADS-B (RJTK)
06:28AM 35.5241 140.5795 94° East 295 339 8,800 1,320 Climbing FlightAware ADS-B (RJTK)
06:29AM 35.5222 140.6120 94° East 296 341 8,800 120 Level FlightAware ADS-B (RJTK)
06:29AM 35.5203 140.6460 94° East 296 341 8,900  Climbing FlightAware ADS-B (RJTK)
06:29AM 35.5186 140.6771 94° East 295 339 8,800 -180 Descending FlightAware ADS-B (RJTK)
06:30AM 35.5164 140.7141 94° East 296 341 8,800  Level FlightAware ADS-B (RJTK)
06:30AM 35.5123 140.7787 93° East 294 338 8,800  Level FlightAware ADS-B (RJTK)
06:31AM 35.5102 140.8113 93° East 293 337 8,800 120 Level FlightAware ADS-B (RJTK)
06:31AM 35.5080 140.8463 93° East 295 339 8,900 1,200 Climbing FlightAware ADS-B (RJTK)
06:31AM 35.5059 140.8799 93° East 296 341 9,600 1,560 Climbing FlightAware ADS-B (RJTK)
06:32AM 35.5000 140.9863 90° East 346 398 11,000 1,380 Climbing FlightAware ADS-B (RJTK)
06:33AM 35.5037 141.0271 79° East 365 420 11,500 1,260 Climbing FlightAware ADS-B (RJTK)
06:33AM 35.5182 141.1145 80° East 403 464 12,300 1,320 Climbing FlightAware ADS-B (RJTK)
06:34AM 35.5330 141.2063 79° East 435 501 13,300 1,980 Climbing FlightAware ADS-B (RJTK)
06:35AM 35.5576 141.3584 80° East 451 519 15,600 2,100 Climbing FlightAware ADS-B (RJTK)
06:36AM 35.5732 141.4557 80° East 465 535 16,900 1,860 Climbing FlightAware ADS-B (RJTK)
06:36AM 35.5902 141.5626 80° East 477 549 18,100 1,800 Climbing FlightAware ADS-B (RJTK)
06:37AM 35.6093 141.6832 80° East 490 564 19,500 1,740 Climbing FlightAware ADS-B (RJTK)
06:38AM 35.6399 141.8785 80° East 506 582 21,400 1,620 Climbing FlightAware ADS-B (RJTK)
06:39AM 35.6598 142.0067 79° East 513 590 22,700 1,560 Climbing FlightAware ADS-B (RJTK)
06:40AM 35.6746 142.1025 79° East 513 590 23,500 1,440 Climbing FlightAware ADS-B (RJTK)
06:40AM 35.6932 142.2245 79° East 526 605 24,500 1,380 Climbing FlightAware ADS-B (RJTK)
06:42AM 35.7293 142.4613 80° East 543 625 26,400 60 Climbing FlightAware ADS-B (RJTK)
06:44AM 35.8742 142.7383 57° Northeast  Level Estimated
06:45AM 35.9516 142.8871 57° Northeast  Level Estimated
06:46AM 36.0288 143.0362 57° Northeast  Level Estimated
06:47AM 36.1058 143.1856 57° Northeast  Level Estimated
06:48AM 36.1827 143.3353 58° Northeast  Level Estimated
06:49AM 36.2593 143.4853 58° Northeast  Level Estimated
06:50AM 36.3358 143.6355 58° Northeast  Level Estimated
06:51AM 36.4121 143.7861 58° Northeast  Level Estimated
06:52AM 36.4881 143.9370 58° Northeast  Level Estimated
06:53AM 36.5640 144.0881 58° Northeast  Level Estimated
06:54AM 36.6397 144.2396 58° Northeast  Level Estimated
06:55AM 36.7152 144.3913 58° Northeast  Level Estimated
06:56AM 36.7906 144.5434 58° Northeast  Level Estimated
06:57AM 36.8657 144.6957 58° Northeast  Level Estimated
06:58AM 36.9406 144.8484 58° Northeast  Level Estimated
06:59AM 37.0154 145.0013 59° Northeast  Level Estimated
07:00AM 37.0899 145.1546 59° Northeast  Level Estimated
07:01AM 37.1642 145.3081 59° Northeast  Level Estimated
07:02AM 37.2384 145.4620 59° Northeast  Level Estimated
07:03AM 37.3123 145.6161 59° Northeast  Level Estimated
07:04AM 37.3861 145.7706 59° Northeast  Level Estimated
07:05AM 37.4596 145.9253 59° Northeast  Level Estimated
07:06AM 37.5329 146.0804 59° Northeast  Level Estimated
07:07AM 37.6061 146.2358 59° Northeast  Level Estimated
07:08AM 37.6790 146.3914 59° Northeast  Level Estimated
07:09AM 37.7517 146.5474 59° Northeast  Level Estimated
07:10AM 37.8242 146.7037 60° Northeast  Level Estimated
07:11AM 37.8965 146.8603 60° Northeast  Level Estimated
07:12AM 37.9687 147.0172 60° Northeast  Level Estimated
07:13AM 38.0406 147.1744 60° Northeast  Level Estimated
07:14AM 38.1122 147.3319 60° Northeast  Level Estimated
07:15AM 38.1837 147.4898 60° Northeast  Level Estimated
07:16AM 38.2550 147.6479 60° Northeast  Level Estimated
07:17AM 38.3260 147.8063 60° Northeast  Level Estimated
07:18AM 38.3969 147.9651 60° Northeast  Level Estimated
07:19AM 38.4675 148.1242 60° Northeast  Level Estimated
07:20AM 38.5379 148.2836 61° Northeast  Level Estimated
07:21AM 38.6081 148.4432 61° Northeast  Level Estimated
07:22AM 38.6781 148.6032 61° Northeast  Level Estimated
07:23AM 38.7478 148.7636 61° Northeast  Level Estimated
07:24AM 38.8173 148.9242 61° Northeast  Level Estimated
07:25AM 38.8867 149.0851 61° Northeast  Level Estimated
07:26AM 38.9558 149.2464 61° Northeast  Level Estimated
07:27AM 39.0248 149.4082 61° Northeast  Level Estimated
07:28AM 39.0935 149.5704 61° Northeast  Level Estimated
07:29AM 39.1621 149.7329 61° Northeast  Level Estimated
07:30AM 39.2304 149.8957 62° Northeast  Level Estimated
07:31AM 39.2985 150.0589 62° Northeast  Level Estimated
07:32AM 39.3663 150.2223 62° Northeast  Level Estimated
07:33AM 39.4340 150.3861 62° Northeast  Level Estimated
07:34AM 39.5014 150.5501 62° Northeast  Level Estimated
07:35AM 39.5686 150.7145 62° Northeast  Level Estimated
07:36AM 39.6355 150.8793 62° Northeast  Level Estimated
07:37AM 39.7022 151.0443 62° Northeast  Level Estimated
07:38AM 39.7687 151.2096 62° Northeast  Level Estimated
07:39AM 39.8349 151.3753 62° Northeast  Level Estimated
07:40AM 39.9009 151.5413 63° Northeast  Level Estimated
07:41AM 39.9667 151.7076 63° Northeast  Level Estimated
07:42AM 40.0322 151.8742 63° Northeast  Level Estimated
07:43AM 40.0975 152.0412 63° Northeast  Level Estimated
07:44AM 40.1626 152.2085 63° Northeast  Level Estimated
07:45AM 40.2274 152.3761 63° Northeast  Level Estimated
07:46AM 40.2920 152.5440 63° Northeast  Level Estimated
07:47AM 40.3563 152.7122 63° Northeast  Level Estimated
07:48AM 40.4203 152.8808 63° Northeast  Level Estimated
07:49AM 40.4842 153.0496 64° Northeast  Level Estimated
07:50AM 40.5478 153.2188 64° Northeast  Level Estimated
07:51AM 40.6111 153.3883 64° Northeast  Level Estimated
07:52AM 40.6742 153.5582 64° Northeast  Level Estimated
07:53AM 40.7370 153.7283 64° Northeast  Level Estimated
07:54AM 40.7996 153.8988 64° Northeast  Level Estimated
07:55AM 40.8620 154.0696 64° Northeast  Level Estimated
07:56AM 40.9241 154.2407 64° Northeast  Level Estimated
07:57AM 40.9859 154.4122 64° Northeast  Level Estimated
07:58AM 41.0475 154.5839 65° Northeast  Level Estimated
07:59AM 41.1088 154.7560 65° Northeast  Level Estimated
08:00AM 41.1699 154.9284 65° Northeast  Level Estimated
08:01AM 41.2307 155.1011 65° Northeast  Level Estimated
08:02AM 41.2912 155.2742 65° Northeast  Level Estimated
08:03AM 41.3515 155.4476 65° Northeast  Level Estimated
08:04AM 41.4116 155.6212 65° Northeast  Level Estimated
08:05AM 41.4713 155.7953 65° Northeast  Level Estimated
08:06AM 41.5308 155.9696 65° Northeast  Level Estimated
08:07AM 41.5901 156.1442 66° East  Level Estimated
08:08AM 41.6491 156.3192 66° East  Level Estimated
08:09AM 41.7078 156.4945 66° East  Level Estimated
08:10AM 41.7662 156.6701 66° East  Level Estimated
08:11AM 41.8244 156.8460 66° East  Level Estimated
08:12AM 41.8823 157.0223 66° East  Level Estimated
08:13AM 41.9400 157.1989 66° East  Level Estimated
08:14AM 41.9973 157.3757 66° East  Level Estimated
08:15AM 42.0544 157.5529 66° East  Level Estimated
08:16AM 42.1113 157.7305 67° East  Level Estimated
08:17AM 42.1678 157.9083 67° East  Level Estimated
08:18AM 42.2241 158.0865 67° East  Level Estimated
08:19AM 42.2801 158.2649 67° East  Level Estimated
08:20AM 42.3358 158.4437 67° East  Level Estimated
08:21AM 42.3912 158.6228 67° East  Level Estimated
08:22AM 42.4466 158.8029 67° East  Level Estimated
08:23AM 42.5017 158.9833 67° East  Level Estimated
08:24AM 42.5565 159.1640 68° East  Level Estimated
08:25AM 42.6110 159.3450 68° East  Level Estimated
08:26AM 42.6652 159.5264 68° East  Level Estimated
08:27AM 42.7192 159.7080 68° East  Level Estimated
08:28AM 42.7728 159.8900 68° East  Level Estimated
08:29AM 42.8262 160.0723 68° East  Level Estimated
08:30AM 42.8792 160.2549 68° East  Level Estimated
08:31AM 42.9320 160.4378 68° East  Level Estimated
08:32AM 42.9845 160.6210 69° East  Level Estimated
08:33AM 43.0367 160.8046 69° East  Level Estimated
08:34AM 43.0886 160.9884 69° East  Level Estimated
08:35AM 43.1402 161.1726 69° East  Level Estimated
08:36AM 43.1916 161.3571 69° East  Level Estimated
08:37AM 43.2426 161.5418 69° East  Level Estimated
08:38AM 43.2933 161.7269 69° East  Level Estimated
08:39AM 43.3437 161.9123 69° East  Level Estimated
08:40AM 43.3938 162.0980 70° East  Level Estimated
08:41AM 43.4436 162.2840 70° East  Level Estimated
08:42AM 43.4932 162.4704 70° East  Level Estimated
08:43AM 43.5424 162.6570 70° East  Level Estimated
08:44AM 43.5913 162.8439 70° East  Level Estimated
08:45AM 43.6399 163.0311 70° East  Level Estimated
08:46AM 43.6882 163.2187 70° East  Level Estimated
08:47AM 43.7362 163.4065 70° East  Level Estimated
08:48AM 43.7839 163.5946 71° East  Level Estimated
08:49AM 43.8312 163.7831 71° East  Level Estimated
08:50AM 43.8783 163.9718 71° East  Level Estimated
08:51AM 43.9251 164.1608 71° East  Level Estimated
08:52AM 43.9715 164.3502 71° East  Level Estimated
08:53AM 44.0176 164.5398 71° East  Level Estimated
08:54AM 44.0634 164.7297 71° East  Level Estimated
08:55AM 44.1090 164.9199 72° East  Level Estimated
08:56AM 44.1541 165.1104 72° East  Level Estimated
08:57AM 44.1990 165.3012 72° East  Level Estimated
08:58AM 44.2435 165.4923 72° East  Level Estimated
08:59AM 44.2878 165.6836 72° East  Level Estimated
09:00AM 44.3317 165.8753 72° East  Level Estimated
09:00AM 41.4500 167.8667 70° East 614 707 37,000  Level Oakland Oceanic (ODAPS)
09:10AM 42.0000 170.0000 71° East 609 701 37,000  Level Oakland Oceanic (ODAPS)
09:14AM 42.2167 170.8833 72° East 606 697 37,000  Level Oakland Oceanic (ODAPS)
09:28AM 42.9167 173.9500 74° East 609 701 37,000  Level Oakland Oceanic (ODAPS)
09:42AM 43.5167 177.0833 76° East 610 702 37,000  Level Oakland Oceanic (ODAPS)
09:54AM 44.0000 180.0000 79° East 593 682 37,000  Level Oakland Oceanic (ODAPS)
09:55AM 44.0333 -179.7833 79° East 590 679 37,000  Level Oakland Oceanic (ODAPS)
10:09AM 44.4333 -176.6500 81° East 585 673 37,000  Level Oakland Oceanic (ODAPS)
10:23AM 44.7500 -173.5500 83° East 580 667 37,000  Level Oakland Oceanic (ODAPS)
10:37AM 44.9667 -170.4500 84° East 578 665 37,000  Level Oakland Oceanic (ODAPS)
10:39AM 45.0000 -170.0000 94° East 570 656 37,000  Level Oakland Oceanic (ODAPS)
10:51AM 44.8167 -167.3500 96° East 568 654 37,000  Level Oakland Oceanic (ODAPS)
11:05AM 44.5333 -164.3000 98° East 567 652 37,000  Level Oakland Oceanic (ODAPS)
11:19AM 44.1833 -161.2667 101° East 568 654 37,100  Climbing Oakland Oceanic (ODAPS)
11:25AM 44.0000 -160.0000 94° East 546 628 38,000 60 Climbing Oakland Oceanic (ODAPS)
11:32AM 43.9000 -158.3833 96° East 542 624 38,000  Level Oakland Oceanic (ODAPS)
11:46AM 43.6667 -155.5167 98° East 544 626 38,000  Level Oakland Oceanic (ODAPS)
12:00PM 43.3500 -152.6667 99° East 540 621 38,000  Level Oakland Oceanic (ODAPS)
12:13PM 43.0000 -150.0000 102° East 547 629 38,000  Level Oakland Oceanic (ODAPS)
12:14PM 43.0000 -150.0000 102° East 540 621 38,000  Level FlightAware Transoceanic
12:14PM 42.9833 -149.8667 102° East 549 632 38,000 60 Level Oakland Oceanic (ODAPS)
12:28PM 42.5167 -147.0833 104° East 549 632 39,000  Climbing Oakland Oceanic (ODAPS)
12:42PM 42.0000 -144.3500 106° East 551 634 39,000  Level Oakland Oceanic (ODAPS)
12:56PM 41.4000 -141.6167 108° East 554 638 39,000  Level Oakland Oceanic (ODAPS)
01:04PM 41.0000 -140.0000 94° East 566 651 39,000  Level Oakland Oceanic (ODAPS)
01:09PM 40.9333 -138.8667 95° East 566 651 39,000  Level Oakland Oceanic (ODAPS)
01:23PM 40.7167 -136.0167 97° East 573 659 39,000  Level Oakland Oceanic (ODAPS)
01:37PM 40.4167 -133.1833 99° East 563 648 39,000  Level Oakland Oceanic (ODAPS)
01:51PM 40.0667 -130.4167 102° East 559 643 39,000  Level Oakland Oceanic (ODAPS)
01:53PM 40.0000 -130.0000 89° East 566 651 39,000  Level Oakland Oceanic (ODAPS)
02:05PM 40.0167 -127.6000 92° East 565 650 39,000  Level Oakland Oceanic (ODAPS)
02:06PM 40.0045 -127.3999 91° East 566 651 39,000 -120 Level FlightAware Transoceanic
02:06PM 39.9933 -127.3333 92° East 568 654 38,900  Descending Oakland Center
02:07PM 40.0024 -127.2000 91° East 566 651 39,000 60 Climbing FlightAware Transoceanic
02:07PM 39.9097 -127.1794 125° Southeast 553 636 39,000  Level Oakland Center
02:08PM 40.0000 -127.0000 107° East 566 651 39,000  Level FlightAware Transoceanic
02:08PM 39.8042 -127.0450 136° Southeast 535 616 39,000  Level Oakland Center
02:09PM 39.9554 -126.8109 107° East 566 651 39,000  Level FlightAware Transoceanic
02:09PM 39.7194 -126.8856 125° Southeast 539 620 39,000  Level Oakland Center
02:10PM 39.9104 -126.6221 107° East 566 651 39,000 -120 Level FlightAware Transoceanic
02:10PM 39.6344 -126.7261 125° Southeast 539 620 38,900 -60 Descending Oakland Center
02:11PM 39.5511 -126.5672 124° Southeast 538 619 38,900  Level Oakland Center
02:12PM 39.4678 -126.4103 124° Southeast 537 618 38,900  Level Oakland Center
02:13PM 39.3642 -126.2192 125° Southeast 537 618 38,900  Level Oakland Center
02:14PM 39.2772 -126.0608 125° Southeast 538 619 39,000  Climbing Oakland Center
02:15PM 39.1861 -125.8900 124° Southeast 539 620 39,000  Level Oakland Center
02:16PM 39.1061 -125.7447 125° Southeast 539 620 39,000 -60 Level Oakland Center
02:17PM 39.0189 -125.5878 126° Southeast 539 620 38,900 -60 Descending Oakland Center
02:18PM 38.9339 -125.4325 125° Southeast 539 620 38,900  Level Oakland Center
02:19PM 38.8483 -125.2775 125° Southeast 538 619 39,000  Climbing Oakland Center
02:20PM 38.7433 -125.0914 126° Southeast 538 619 39,000  Level Oakland Center
02:21PM 38.6569 -124.9375 126° Southeast 537 618 39,000  Level Oakland Center
02:22PM 38.5806 -124.8000 125° Southeast 537 618 39,000  Level Oakland Center
02:24PM 38.4758 -124.6139 126° Southeast 537 618 39,000 -60 Level Oakland Center
02:25PM 38.3856 -124.4597 127° Southeast 540 621 38,900  Descending Oakland Center
02:26PM 38.3000 -124.3067 125° Southeast 535 616 39,000  Climbing Oakland Center
02:27PM 38.2128 -124.1547 126° Southeast 535 616 39,000  Level Oakland Center
02:28PM 38.1233 -124.0022 127° Southeast 536 617 39,000  Level Oakland Center
02:29PM 38.0336 -123.8500 127° Southeast 538 619 39,000  Level Oakland Center
02:30PM 37.9456 -123.6972 126° Southeast 539 620 39,000 -60 Level Oakland Center
02:31PM 37.8392 -123.5147 126° Southeast 539 620 38,900  Descending Oakland Center
02:32PM 37.7497 -123.3617 126° Southeast 541 623 39,000  Climbing Oakland Center
02:33PM 37.6594 -123.2108 127° Southeast 542 624 38,900  Descending Oakland Center
02:39PM 37.1412 -122.3490 127° Southeast 537 618 39,000  Climbing FlightAware ADS-B
02:39PM 37.0839 -122.2550 127° Southeast 539 620 39,000  Level FlightAware ADS-B
02:40PM 37.0072 -122.1290 127° Southeast 539 620 39,000  Level FlightAware ADS-B
02:40PM 36.9676 -122.0650 127° Southeast 539 620 39,000  Level FlightAware ADS-B
02:41PM 36.9142 -121.9780 127° Southeast 539 620 39,000  Level FlightAware ADS-B
02:42PM 36.8337 -121.8470 128° Southeast 540 621 39,000  Level FlightAware ADS-B
02:42PM 36.7797 -121.7600 128° Southeast 540 621 39,000  Level FlightAware ADS-B
02:43PM 36.7054 -121.6400 128° Southeast 540 621 39,000  Level FlightAware ADS-B
02:44PM 36.6298 -121.5190 128° Southeast 538 619 39,000  Level FlightAware ADS-B
02:45PM 36.5713 -121.4250 128° Southeast 537 618 39,000  Level FlightAware ADS-B
02:46PM 36.4484 -121.2290 128° Southeast 538 619 39,000 -60 Level FlightAware ADS-B
02:47PM 36.3814 -121.1267 128° Southeast 543 625 38,900  Descending Los Angeles Center
02:48PM 36.2900 -120.9781 127° Southeast 543 625 39,000  Climbing Los Angeles Center
02:49PM 36.1961 -120.8344 129° Southeast 538 619 39,000  Level Los Angeles Center
02:50PM 36.1033 -120.6881 128° Southeast 539 620 39,000  Level Los Angeles Center
02:51PM 35.9914 -120.5125 128° Southeast 541 623 39,000  Level Los Angeles Center
02:52PM 35.8967 -120.3664 129° Southeast 543 625 39,000  Level Los Angeles Center
02:53PM 35.8017 -120.2200 129° Southeast 544 626 39,000  Level Los Angeles Center
02:54PM 35.7092 -120.0739 128° Southeast 544 626 39,000  Level Los Angeles Center
02:55PM 35.6039 -119.9439 135° Southeast 535 616 39,000 -420 Level Los Angeles Center
02:56PM 35.4853 -119.8394 144° Southeast 526 605 38,200 -1,800 Descending Los Angeles Center
02:57PM 35.3453 -119.7181 145° Southeast 515 593 35,300 -2,820 Descending Los Angeles Center
02:58PM 35.2286 -119.6183 145° Southeast 513 590 32,400 -3,060 Descending Los Angeles Center
02:59PM 35.1083 -119.5150 145° Southeast 522 601 29,000 -3,000 Descending Los Angeles Center
03:00PM 34.9856 -119.4103 145° Southeast 532 612 26,200 -2,520 Descending Los Angeles Center
03:01PM 34.8692 -119.3108 145° Southeast 516 594 23,800 -2,520 Descending Los Angeles Center
03:02PM 34.7442 -119.2078 146° Southeast 497 572 21,100 -2,520 Descending Los Angeles Center
03:03PM 34.6353 -119.1147 145° Southeast 484 557 18,700 -2,340 Descending Los Angeles Center
03:04PM 34.5283 -119.0264 146° Southeast 462 532 16,300 -2,580 Descending Los Angeles Center
03:05PM 34.4058 -118.9206 145° Southeast 445 512 13,400 -1,740 Descending Los Angeles Center
03:07PM 34.3036 -118.8639 155° Southeast 401 461 12,700 -600 Descending Los Angeles Center
03:08PM 34.2086 -118.8275 162° South 355 409 12,200 -660 Descending Los Angeles Center
03:09PM 34.1242 -118.7964 163° South 320 368 11,400 -1,020 Descending Los Angeles Center
03:10PM 34.0392 -118.7422 152° Southeast 302 348 10,100 -780 Descending Los Angeles Center
03:11PM 34.0269 -118.6386 98° East 311 358 9,800 -660 Descending Los Angeles Center
03:12PM 34.0175 -118.5403 97° East 299 344 8,800 -1,080 Descending Los Angeles Center
03:17PM 33.9525 -118.2329 263° West 167 192 2,700 -1,080 Descending FlightAware ADS-B
03:18PM 33.9503 -118.2656 263° West 180 207 2,200 -900 Descending Los Angeles Center
03:19PM 33.9453 -118.3153 263° West 163 188 1,200 -840 Descending Los Angeles Center
03:20PM 33.9408 -118.3617 263° West 150 173 500 -540 Descending Los Angeles Center
03:21PM 33.9364 -118.4042 263° West 146 168 200 -300 Descending Los Angeles Center